sensor_id;sensor_type;location;lat;lon;timestamp;P1;durP1;ratioP1;P2;durP2;ratioP2
10275;SDS011;5183;51.190;6.820;2024-03-23T00:55:33;23.70;;;7.43;;
10275;SDS011;5183;51.190;6.820;2024-03-23T00:58:00;22.37;;;7.37;;
10275;SDS011;5183;51.190;6.820;2024-03-23T01:00:26;28.43;;;7.90;;
10275;SDS011;5183;51.190;6.820;2024-03-23T01:02:53;23.67;;;7.37;;
10275;SDS011;5183;51.190;6.820;2024-03-23T01:05:19;25.83;;;7.83;;
10275;SDS011;5183;51.190;6.820;2024-03-23T01:07:46;17.50;;;7.30;;
10275;SDS011;5183;51.190;6.820;2024-03-23T01:10:12;32.17;;;8.80;;
10275;SDS011;5183;51.190;6.820;2024-03-23T01:12:40;29.30;;;8.83;;
10275;SDS011;5183;51.190;6.820;2024-03-23T01:15:06;31.07;;;9.60;;
10275;SDS011;5183;51.190;6.820;2024-03-23T01:17:33;22.07;;;8.53;;
10275;SDS011;5183;51.190;6.820;2024-03-23T01:19:59;21.60;;;8.80;;
10275;SDS011;5183;51.190;6.820;2024-03-23T01:22:26;22.70;;;9.00;;
10275;SDS011;5183;51.190;6.820;2024-03-23T01:24:52;25.20;;;9.07;;
10275;SDS011;5183;51.190;6.820;2024-03-23T01:27:18;27.77;;;9.53;;
10275;SDS011;5183;51.190;6.820;2024-03-23T01:29:45;28.20;;;8.90;;
10275;SDS011;5183;51.190;6.820;2024-03-23T01:32:12;23.77;;;9.00;;
10275;SDS011;5183;51.190;6.820;2024-03-23T01:34:38;27.20;;;8.80;;
10275;SDS011;5183;51.190;6.820;2024-03-23T01:37:05;24.27;;;8.73;;
10275;SDS011;5183;51.190;6.820;2024-03-23T01:39:31;28.50;;;9.40;;
10275;SDS011;5183;51.190;6.820;2024-03-23T01:41:58;24.07;;;9.67;;
10275;SDS011;5183;51.190;6.820;2024-03-23T01:44:24;23.07;;;8.57;;
10275;SDS011;5183;51.190;6.820;2024-03-23T01:46:52;19.80;;;7.30;;
10275;SDS011;5183;51.190;6.820;2024-03-23T01:49:18;18.20;;;7.57;;
10275;SDS011;5183;51.190;6.820;2024-03-23T01:51:45;19.13;;;6.60;;
10275;SDS011;5183;51.190;6.820;2024-03-23T01:54:10;14.30;;;5.70;;
10275;SDS011;5183;51.190;6.820;2024-03-23T01:56:38;19.60;;;5.80;;
10275;SDS011;5183;51.190;6.820;2024-03-23T01:59:04;17.37;;;5.60;;
10275;SDS011;5183;51.190;6.820;2024-03-23T02:01:31;18.13;;;5.83;;
10275;SDS011;5183;51.190;6.820;2024-03-23T02:03:59;11.40;;;5.27;;
10275;SDS011;5183;51.190;6.820;2024-03-23T02:06:26;18.97;;;6.80;;
10275;SDS011;5183;51.190;6.820;2024-03-23T02:08:52;14.40;;;6.40;;
10275;SDS011;5183;51.190;6.820;2024-03-23T02:11:20;15.97;;;6.20;;
10275;SDS011;5183;51.190;6.820;2024-03-23T02:13:46;15.20;;;6.80;;
10275;SDS011;5183;51.190;6.820;2024-03-23T02:16:13;16.43;;;6.63;;
10275;SDS011;5183;51.190;6.820;2024-03-23T02:18:38;19.77;;;6.83;;
10275;SDS011;5183;51.190;6.820;2024-03-23T02:21:07;14.10;;;6.40;;
10275;SDS011;5183;51.190;6.820;2024-03-23T02:23:34;19.40;;;6.43;;
10275;SDS011;5183;51.190;6.820;2024-03-23T02:26:01;12.87;;;6.63;;
10275;SDS011;5183;51.190;6.820;2024-03-23T02:28:27;16.07;;;5.97;;
10275;SDS011;5183;51.190;6.820;2024-03-23T02:30:53;17.33;;;6.60;;
10275;SDS011;5183;51.190;6.820;2024-03-23T02:33:19;18.63;;;6.13;;
10275;SDS011;5183;51.190;6.820;2024-03-23T02:35:46;15.90;;;5.40;;
10275;SDS011;5183;51.190;6.820;2024-03-23T02:38:12;16.00;;;6.07;;
10275;SDS011;5183;51.190;6.820;2024-03-23T02:40:41;15.50;;;5.80;;
10275;SDS011;5183;51.190;6.820;2024-03-23T02:43:06;13.00;;;4.80;;
10275;SDS011;5183;51.190;6.820;2024-03-23T02:45:33;16.73;;;6.53;;
10275;SDS011;5183;51.190;6.820;2024-03-23T02:47:59;14.37;;;5.40;;
10275;SDS011;5183;51.190;6.820;2024-03-23T02:50:26;14.07;;;5.13;;
10275;SDS011;5183;51.190;6.820;2024-03-23T02:52:52;14.50;;;5.50;;
10275;SDS011;5183;51.190;6.820;2024-03-23T02:55:19;13.70;;;5.47;;
10275;SDS011;5183;51.190;6.820;2024-03-23T02:57:46;14.70;;;4.97;;
10275;SDS011;5183;51.190;6.820;2024-03-23T03:00:13;10.67;;;4.83;;
10275;SDS011;5183;51.190;6.820;2024-03-23T03:02:39;18.20;;;5.70;;
10275;SDS011;5183;51.190;6.820;2024-03-23T03:05:06;14.40;;;4.60;;
10275;SDS011;5183;51.190;6.820;2024-03-23T03:07:33;13.13;;;4.27;;
10275;SDS011;5183;51.190;6.820;2024-03-23T03:10:00;13.90;;;4.80;;
10275;SDS011;5183;51.190;6.820;2024-03-23T03:12:26;15.63;;;4.93;;
10275;SDS011;5183;51.190;6.820;2024-03-23T03:14:54;14.10;;;4.53;;
10275;SDS011;5183;51.190;6.820;2024-03-23T03:17:20;17.43;;;4.77;;
10275;SDS011;5183;51.190;6.820;2024-03-23T03:19:48;14.90;;;4.83;;
10275;SDS011;5183;51.190;6.820;2024-03-23T03:22:14;15.97;;;4.53;;
10275;SDS011;5183;51.190;6.820;2024-03-23T03:24:41;14.27;;;4.10;;
10275;SDS011;5183;51.190;6.820;2024-03-23T03:27:07;15.43;;;4.50;;
10275;SDS011;5183;51.190;6.820;2024-03-23T03:29:34;14.70;;;3.90;;
10275;SDS011;5183;51.190;6.820;2024-03-23T03:32:02;11.70;;;3.90;;
10275;SDS011;5183;51.190;6.820;2024-03-23T03:34:29;14.90;;;4.13;;
10275;SDS011;5183;51.190;6.820;2024-03-23T03:36:56;12.10;;;3.97;;
10275;SDS011;5183;51.190;6.820;2024-03-23T03:39:23;17.80;;;4.73;;
10275;SDS011;5183;51.190;6.820;2024-03-23T03:41:49;16.23;;;4.70;;
10275;SDS011;5183;51.190;6.820;2024-03-23T03:44:16;10.53;;;4.33;;
10275;SDS011;5183;51.190;6.820;2024-03-23T03:46:42;13.93;;;4.43;;
10275;SDS011;5183;51.190;6.820;2024-03-23T03:49:11;14.57;;;4.47;;
10275;SDS011;5183;51.190;6.820;2024-03-23T03:51:36;12.23;;;4.60;;
10275;SDS011;5183;51.190;6.820;2024-03-23T03:54:03;12.63;;;4.40;;
10275;SDS011;5183;51.190;6.820;2024-03-23T03:56:29;16.47;;;4.60;;
10275;SDS011;5183;51.190;6.820;2024-03-23T03:58:56;13.50;;;4.50;;
10275;SDS011;5183;51.190;6.820;2024-03-23T04:01:22;9.47;;;3.87;;
10275;SDS011;5183;51.190;6.820;2024-03-23T04:03:49;14.17;;;4.90;;
10275;SDS011;5183;51.190;6.820;2024-03-23T04:06:19;11.77;;;4.10;;
10275;SDS011;5183;51.190;6.820;2024-03-23T04:08:46;10.97;;;4.20;;
10275;SDS011;5183;51.190;6.820;2024-03-23T04:11:12;14.83;;;4.93;;
10275;SDS011;5183;51.190;6.820;2024-03-23T04:13:39;17.70;;;4.50;;
10275;SDS011;5183;51.190;6.820;2024-03-23T04:16:06;21.13;;;4.50;;
10275;SDS011;5183;51.190;6.820;2024-03-23T04:18:34;14.70;;;4.57;;
10275;SDS011;5183;51.190;6.820;2024-03-23T04:21:00;13.53;;;3.93;;
10275;SDS011;5183;51.190;6.820;2024-03-23T04:23:28;13.63;;;3.97;;
10275;SDS011;5183;51.190;6.820;2024-03-23T04:25:54;13.10;;;4.70;;
10275;SDS011;5183;51.190;6.820;2024-03-23T04:28:21;14.47;;;4.20;;
10275;SDS011;5183;51.190;6.820;2024-03-23T04:30:47;16.27;;;4.43;;
10275;SDS011;5183;51.190;6.820;2024-03-23T04:33:14;15.37;;;4.50;;
10275;SDS011;5183;51.190;6.820;2024-03-23T04:35:40;13.13;;;3.93;;
10275;SDS011;5183;51.190;6.820;2024-03-23T04:38:06;11.97;;;4.63;;
10275;SDS011;5183;51.190;6.820;2024-03-23T04:40:35;15.07;;;4.77;;
10275;SDS011;5183;51.190;6.820;2024-03-23T04:43:02;8.73;;;4.23;;
10275;SDS011;5183;51.190;6.820;2024-03-23T04:45:29;15.63;;;5.40;;
10275;SDS011;5183;51.190;6.820;2024-03-23T04:47:56;15.03;;;4.20;;
10275;SDS011;5183;51.190;6.820;2024-03-23T04:50:23;13.90;;;5.00;;
10275;SDS011;5183;51.190;6.820;2024-03-23T04:52:49;16.47;;;4.57;;
10275;SDS011;5183;51.190;6.820;2024-03-23T04:55:16;16.97;;;5.07;;
10275;SDS011;5183;51.190;6.820;2024-03-23T04:57:43;15.07;;;5.73;;
10275;SDS011;5183;51.190;6.820;2024-03-23T05:00:11;16.27;;;5.73;;
10275;SDS011;5183;51.190;6.820;2024-03-23T05:02:42;14.40;;;5.20;;
10275;SDS011;5183;51.190;6.820;2024-03-23T05:05:10;14.90;;;6.23;;
10275;SDS011;5183;51.190;6.820;2024-03-23T05:07:36;18.53;;;5.53;;
10275;SDS011;5183;51.190;6.820;2024-03-23T05:10:03;17.43;;;5.90;;
10275;SDS011;5183;51.190;6.820;2024-03-23T05:12:29;16.17;;;6.40;;
10275;SDS011;5183;51.190;6.820;2024-03-23T05:14:57;17.50;;;6.33;;
10275;SDS011;5183;51.190;6.820;2024-03-23T05:17:23;21.37;;;7.10;;
10275;SDS011;5183;51.190;6.820;2024-03-23T05:19:50;19.97;;;6.60;;
10275;SDS011;5183;51.190;6.820;2024-03-23T05:22:16;17.13;;;7.47;;
10275;SDS011;5183;51.190;6.820;2024-03-23T05:24:44;18.50;;;7.93;;
10275;SDS011;5183;51.190;6.820;2024-03-23T05:27:10;21.50;;;7.73;;
10275;SDS011;5183;51.190;6.820;2024-03-23T05:29:37;20.40;;;7.30;;
10275;SDS011;5183;51.190;6.820;2024-03-23T05:32:04;18.90;;;7.07;;
10275;SDS011;5183;51.190;6.820;2024-03-23T05:34:31;22.13;;;7.93;;
10275;SDS011;5183;51.190;6.820;2024-03-23T05:36:57;23.17;;;10.17;;
10275;SDS011;5183;51.190;6.820;2024-03-23T05:39:24;21.27;;;8.00;;
10275;SDS011;5183;51.190;6.820;2024-03-23T05:41:50;25.23;;;8.40;;
10275;SDS011;5183;51.190;6.820;2024-03-23T05:44:17;23.33;;;8.13;;
10275;SDS011;5183;51.190;6.820;2024-03-23T05:46:43;23.40;;;7.67;;
10275;SDS011;5183;51.190;6.820;2024-03-23T05:49:15;21.83;;;8.20;;
10275;SDS011;5183;51.190;6.820;2024-03-23T05:51:41;24.37;;;9.90;;
10275;SDS011;5183;51.190;6.820;2024-03-23T05:54:08;25.77;;;8.40;;
10275;SDS011;5183;51.190;6.820;2024-03-23T05:56:33;24.03;;;8.80;;
10275;SDS011;5183;51.190;6.820;2024-03-23T05:59:00;22.63;;;8.10;;
10275;SDS011;5183;51.190;6.820;2024-03-23T06:01:28;20.60;;;8.03;;
10275;SDS011;5183;51.190;6.820;2024-03-23T06:03:56;22.97;;;8.03;;
10275;SDS011;5183;51.190;6.820;2024-03-23T06:06:24;19.93;;;7.70;;
10275;SDS011;5183;51.190;6.820;2024-03-23T06:08:50;18.03;;;8.20;;
10275;SDS011;5183;51.190;6.820;2024-03-23T06:11:16;17.73;;;7.77;;
10275;SDS011;5183;51.190;6.820;2024-03-23T06:13:42;20.27;;;7.83;;
10275;SDS011;5183;51.190;6.820;2024-03-23T06:16:09;22.40;;;8.47;;
10275;SDS011;5183;51.190;6.820;2024-03-23T06:18:35;19.10;;;7.83;;
10275;SDS011;5183;51.190;6.820;2024-03-23T06:21:02;16.00;;;8.07;;
10275;SDS011;5183;51.190;6.820;2024-03-23T06:23:30;20.87;;;8.10;;
10275;SDS011;5183;51.190;6.820;2024-03-23T06:25:56;23.83;;;8.47;;
10275;SDS011;5183;51.190;6.820;2024-03-23T06:28:22;20.07;;;7.67;;
10275;SDS011;5183;51.190;6.820;2024-03-23T06:30:49;23.77;;;8.43;;
10275;SDS011;5183;51.190;6.820;2024-03-23T06:33:15;23.23;;;8.77;;
10275;SDS011;5183;51.190;6.820;2024-03-23T06:35:42;22.77;;;8.57;;
10275;SDS011;5183;51.190;6.820;2024-03-23T06:38:07;22.40;;;9.40;;
10275;SDS011;5183;51.190;6.820;2024-03-23T06:40:37;20.63;;;9.20;;
10275;SDS011;5183;51.190;6.820;2024-03-23T06:43:02;28.03;;;9.73;;
10275;SDS011;5183;51.190;6.820;2024-03-23T06:45:30;22.77;;;9.10;;
10275;SDS011;5183;51.190;6.820;2024-03-23T06:47:56;26.40;;;11.07;;
10275;SDS011;5183;51.190;6.820;2024-03-23T06:50:23;27.63;;;11.40;;
10275;SDS011;5183;51.190;6.820;2024-03-23T06:52:51;23.83;;;10.80;;
10275;SDS011;5183;51.190;6.820;2024-03-23T06:55:17;21.53;;;10.13;;
10275;SDS011;5183;51.190;6.820;2024-03-23T06:57:45;25.63;;;10.80;;
10275;SDS011;5183;51.190;6.820;2024-03-23T07:00:11;27.77;;;11.70;;
10275;SDS011;5183;51.190;6.820;2024-03-23T07:02:41;21.63;;;10.60;;
10275;SDS011;5183;51.190;6.820;2024-03-23T07:05:07;26.43;;;11.57;;
10275;SDS011;5183;51.190;6.820;2024-03-23T07:07:33;28.37;;;11.43;;
10275;SDS011;5183;51.190;6.820;2024-03-23T07:09:59;30.97;;;12.50;;
10275;SDS011;5183;51.190;6.820;2024-03-23T07:12:26;29.63;;;12.17;;
10275;SDS011;5183;51.190;6.820;2024-03-23T07:14:53;24.53;;;11.40;;
10275;SDS011;5183;51.190;6.820;2024-03-23T07:17:20;24.77;;;11.63;;
10275;SDS011;5183;51.190;6.820;2024-03-23T07:19:46;26.80;;;11.73;;
10275;SDS011;5183;51.190;6.820;2024-03-23T07:22:14;29.80;;;12.10;;
10275;SDS011;5183;51.190;6.820;2024-03-23T07:24:40;25.73;;;11.57;;
10275;SDS011;5183;51.190;6.820;2024-03-23T07:27:08;25.00;;;11.40;;
10275;SDS011;5183;51.190;6.820;2024-03-23T07:29:35;26.00;;;10.97;;
10275;SDS011;5183;51.190;6.820;2024-03-23T07:32:03;23.73;;;10.90;;
10275;SDS011;5183;51.190;6.820;2024-03-23T07:34:29;24.47;;;10.70;;
10275;SDS011;5183;51.190;6.820;2024-03-23T07:36:56;20.57;;;11.20;;
10275;SDS011;5183;51.190;6.820;2024-03-23T07:39:22;24.33;;;10.63;;
10275;SDS011;5183;51.190;6.820;2024-03-23T07:41:50;26.03;;;10.00;;
10275;SDS011;5183;51.190;6.820;2024-03-23T07:44:15;25.33;;;10.00;;
10275;SDS011;5183;51.190;6.820;2024-03-23T07:46:42;19.07;;;9.77;;
10275;SDS011;5183;51.190;6.820;2024-03-23T07:49:09;25.30;;;10.30;;
10275;SDS011;5183;51.190;6.820;2024-03-23T07:51:36;20.30;;;9.87;;
10275;SDS011;5183;51.190;6.820;2024-03-23T07:54:04;25.47;;;11.37;;
10275;SDS011;5183;51.190;6.820;2024-03-23T07:56:31;25.87;;;11.80;;
10275;SDS011;5183;51.190;6.820;2024-03-23T07:58:57;26.13;;;12.27;;
10275;SDS011;5183;51.190;6.820;2024-03-23T08:01:24;24.42;;;12.40;;
10275;SDS011;5183;51.190;6.820;2024-03-23T08:03:50;19.83;;;11.87;;
10275;SDS011;5183;51.190;6.820;2024-03-23T08:06:19;24.10;;;12.33;;
10275;SDS011;5183;51.190;6.820;2024-03-23T08:08:47;27.27;;;12.17;;
10275;SDS011;5183;51.190;6.820;2024-03-23T08:11:15;22.07;;;11.23;;
10275;SDS011;5183;51.190;6.820;2024-03-23T08:13:41;21.17;;;10.33;;
10275;SDS011;5183;51.190;6.820;2024-03-23T08:16:11;20.77;;;10.00;;
10275;SDS011;5183;51.190;6.820;2024-03-23T08:18:37;16.53;;;8.57;;
10275;SDS011;5183;51.190;6.820;2024-03-23T08:21:04;18.77;;;8.90;;
10275;SDS011;5183;51.190;6.820;2024-03-23T08:23:32;20.63;;;8.67;;
10275;SDS011;5183;51.190;6.820;2024-03-23T08:26:01;16.87;;;8.43;;
10275;SDS011;5183;51.190;6.820;2024-03-23T08:28:28;14.60;;;7.40;;
10275;SDS011;5183;51.190;6.820;2024-03-23T08:30:55;15.00;;;7.37;;
10275;SDS011;5183;51.190;6.820;2024-03-23T08:33:22;16.53;;;7.10;;
10275;SDS011;5183;51.190;6.820;2024-03-23T08:35:53;14.80;;;6.97;;
10275;SDS011;5183;51.190;6.820;2024-03-23T08:38:20;12.47;;;5.23;;
10275;SDS011;5183;51.190;6.820;2024-03-23T08:40:53;13.73;;;5.57;;
10275;SDS011;5183;51.190;6.820;2024-03-23T08:43:22;11.63;;;4.60;;
10275;SDS011;5183;51.190;6.820;2024-03-23T08:45:48;12.73;;;4.57;;
10275;SDS011;5183;51.190;6.820;2024-03-23T08:48:15;15.10;;;5.30;;
10275;SDS011;5183;51.190;6.820;2024-03-23T08:50:42;12.93;;;4.27;;
10275;SDS011;5183;51.190;6.820;2024-03-23T08:53:08;13.13;;;4.33;;
10275;SDS011;5183;51.190;6.820;2024-03-23T08:55:35;15.87;;;4.37;;
10275;SDS011;5183;51.190;6.820;2024-03-23T08:58:03;11.77;;;4.17;;
10275;SDS011;5183;51.190;6.820;2024-03-23T09:00:30;16.40;;;4.60;;
10275;SDS011;5183;51.190;6.820;2024-03-23T09:02:56;9.33;;;3.50;;
10275;SDS011;5183;51.190;6.820;2024-03-23T09:05:23;11.00;;;3.90;;
10275;SDS011;5183;51.190;6.820;2024-03-23T09:07:49;9.17;;;4.23;;
10275;SDS011;5183;51.190;6.820;2024-03-23T09:10:16;12.33;;;4.50;;
10275;SDS011;5183;51.190;6.820;2024-03-23T09:12:42;9.90;;;4.27;;
10275;SDS011;5183;51.190;6.820;2024-03-23T09:15:10;10.23;;;4.60;;
10275;SDS011;5183;51.190;6.820;2024-03-23T09:17:36;11.90;;;5.00;;
10275;SDS011;5183;51.190;6.820;2024-03-23T09:20:03;12.70;;;5.10;;
10275;SDS011;5183;51.190;6.820;2024-03-23T09:22:29;10.50;;;4.70;;
10275;SDS011;5183;51.190;6.820;2024-03-23T09:24:56;9.87;;;5.40;;
10275;SDS011;5183;51.190;6.820;2024-03-23T09:27:22;15.17;;;5.70;;
10275;SDS011;5183;51.190;6.820;2024-03-23T09:29:49;11.77;;;5.20;;
10275;SDS011;5183;51.190;6.820;2024-03-23T09:32:16;11.93;;;5.33;;
10275;SDS011;5183;51.190;6.820;2024-03-23T09:34:43;12.10;;;5.47;;
10275;SDS011;5183;51.190;6.820;2024-03-23T09:37:09;13.10;;;4.97;;
10275;SDS011;5183;51.190;6.820;2024-03-23T09:39:36;9.77;;;4.63;;
10275;SDS011;5183;51.190;6.820;2024-03-23T09:42:02;15.03;;;5.47;;
10275;SDS011;5183;51.190;6.820;2024-03-23T09:44:30;11.47;;;4.70;;
10275;SDS011;5183;51.190;6.820;2024-03-23T09:46:56;11.17;;;4.73;;
10275;SDS011;5183;51.190;6.820;2024-03-23T09:49:24;10.13;;;4.37;;
10275;SDS011;5183;51.190;6.820;2024-03-23T09:51:50;12.83;;;4.83;;
10275;SDS011;5183;51.190;6.820;2024-03-23T09:54:20;10.43;;;4.23;;
10275;SDS011;5183;51.190;6.820;2024-03-23T09:56:46;11.47;;;4.73;;
10275;SDS011;5183;51.190;6.820;2024-03-23T09:59:13;10.47;;;4.20;;
10275;SDS011;5183;51.190;6.820;2024-03-23T10:01:39;10.37;;;3.50;;
10275;SDS011;5183;51.190;6.820;2024-03-23T10:04:06;9.37;;;4.00;;
10275;SDS011;5183;51.190;6.820;2024-03-23T10:06:33;8.33;;;4.50;;
10275;SDS011;5183;51.190;6.820;2024-03-23T10:09:01;7.20;;;3.50;;
10275;SDS011;5183;51.190;6.820;2024-03-23T10:11:41;7.50;;;3.40;;
10275;SDS011;5183;51.190;6.820;2024-03-23T10:14:09;8.00;;;3.37;;
10275;SDS011;5183;51.190;6.820;2024-03-23T10:16:35;6.93;;;2.80;;
10275;SDS011;5183;51.190;6.820;2024-03-23T10:19:02;9.77;;;3.57;;
10275;SDS011;5183;51.190;6.820;2024-03-23T10:21:27;7.57;;;3.23;;
10275;SDS011;5183;51.190;6.820;2024-03-23T10:23:57;8.73;;;3.10;;
10275;SDS011;5183;51.190;6.820;2024-03-23T10:26:33;6.87;;;2.90;;
10275;SDS011;5183;51.190;6.820;2024-03-23T10:29:01;6.83;;;2.67;;
10275;SDS011;5183;51.190;6.820;2024-03-23T10:31:32;8.37;;;2.50;;
10275;SDS011;5183;51.190;6.820;2024-03-23T10:34:00;6.37;;;2.10;;
10275;SDS011;5183;51.190;6.820;2024-03-23T10:36:27;4.20;;;1.77;;
10275;SDS011;5183;51.190;6.820;2024-03-23T10:38:57;4.37;;;1.90;;
10275;SDS011;5183;51.190;6.820;2024-03-23T10:41:24;4.47;;;2.03;;
10275;SDS011;5183;51.190;6.820;2024-03-23T10:43:53;2.77;;;1.57;;
10275;SDS011;5183;51.190;6.820;2024-03-23T10:46:22;2.33;;;1.83;;
10275;SDS011;5183;51.190;6.820;2024-03-23T10:48:49;3.23;;;1.93;;
10275;SDS011;5183;51.190;6.820;2024-03-23T10:51:15;5.20;;;2.20;;
10275;SDS011;5183;51.190;6.820;2024-03-23T10:53:42;7.07;;;2.60;;
10275;SDS011;5183;51.190;6.820;2024-03-23T10:56:11;5.87;;;2.50;;
10275;SDS011;5183;51.190;6.820;2024-03-23T10:58:40;5.17;;;2.30;;
10275;SDS011;5183;51.190;6.820;2024-03-23T11:01:10;6.07;;;2.83;;
10275;SDS011;5183;51.190;6.820;2024-03-23T11:03:37;5.33;;;2.40;;
10275;SDS011;5183;51.190;6.820;2024-03-23T11:06:04;6.20;;;2.47;;
10275;SDS011;5183;51.190;6.820;2024-03-23T11:08:32;4.87;;;2.87;;
10275;SDS011;5183;51.190;6.820;2024-03-23T11:11:13;4.43;;;2.90;;
10275;SDS011;5183;51.190;6.820;2024-03-23T11:13:40;4.50;;;2.50;;
10275;SDS011;5183;51.190;6.820;2024-03-23T11:16:13;3.77;;;2.13;;
10275;SDS011;5183;51.190;6.820;2024-03-23T11:18:41;4.73;;;2.13;;
10275;SDS011;5183;51.190;6.820;2024-03-23T11:21:07;4.43;;;2.40;;
10275;SDS011;5183;51.190;6.820;2024-03-23T11:23:34;3.20;;;2.40;;
10275;SDS011;5183;51.190;6.820;2024-03-23T11:26:00;5.67;;;2.30;;
10275;SDS011;5183;51.190;6.820;2024-03-23T11:28:28;6.00;;;2.30;;
10275;SDS011;5183;51.190;6.820;2024-03-23T11:30:55;4.03;;;2.10;;
10275;SDS011;5183;51.190;6.820;2024-03-23T11:33:22;6.90;;;2.50;;
10275;SDS011;5183;51.190;6.820;2024-03-23T11:35:48;5.13;;;3.20;;
10275;SDS011;5183;51.190;6.820;2024-03-23T11:38:17;4.03;;;2.13;;
10275;SDS011;5183;51.190;6.820;2024-03-23T11:40:44;3.07;;;2.07;;
10275;SDS011;5183;51.190;6.820;2024-03-23T11:43:12;4.03;;;2.60;;
10275;SDS011;5183;51.190;6.820;2024-03-23T11:45:40;5.00;;;2.50;;
10275;SDS011;5183;51.190;6.820;2024-03-23T11:48:09;6.90;;;2.70;;
10275;SDS011;5183;51.190;6.820;2024-03-23T11:50:39;4.50;;;2.80;;
10275;SDS011;5183;51.190;6.820;2024-03-23T11:53:16;4.73;;;2.60;;
10275;SDS011;5183;51.190;6.820;2024-03-23T11:55:46;7.03;;;2.67;;
10275;SDS011;5183;51.190;6.820;2024-03-23T11:58:15;2.93;;;1.53;;
10275;SDS011;5183;51.190;6.820;2024-03-23T12:00:43;1.10;;;1.00;;
10275;SDS011;5183;51.190;6.820;2024-03-23T12:03:17;2.10;;;1.07;;
10275;SDS011;5183;51.190;6.820;2024-03-23T12:05:47;3.93;;;1.27;;
10275;SDS011;5183;51.190;6.820;2024-03-23T12:08:18;2.97;;;1.00;;
10275;SDS011;5183;51.190;6.820;2024-03-23T12:10:47;1.57;;;1.30;;
10275;SDS011;5183;51.190;6.820;2024-03-23T12:13:15;2.67;;;1.30;;
10275;SDS011;5183;51.190;6.820;2024-03-23T12:15:44;2.20;;;1.27;;
10275;SDS011;5183;51.190;6.820;2024-03-23T12:18:11;5.50;;;1.30;;
10275;SDS011;5183;51.190;6.820;2024-03-23T12:20:37;3.90;;;1.50;;
10275;SDS011;5183;51.190;6.820;2024-03-23T12:23:05;3.27;;;1.50;;
10275;SDS011;5183;51.190;6.820;2024-03-23T12:25:31;4.37;;;1.70;;
10275;SDS011;5183;51.190;6.820;2024-03-23T12:27:58;3.00;;;2.07;;
10275;SDS011;5183;51.190;6.820;2024-03-23T12:30:24;5.23;;;2.07;;
10275;SDS011;5183;51.190;6.820;2024-03-23T12:32:53;4.30;;;2.27;;
10275;SDS011;5183;51.190;6.820;2024-03-23T12:35:19;2.67;;;2.20;;
10275;SDS011;5183;51.190;6.820;2024-03-23T12:37:46;2.77;;;1.83;;
10275;SDS011;5183;51.190;6.820;2024-03-23T12:40:11;6.03;;;2.20;;
10275;SDS011;5183;51.190;6.820;2024-03-23T12:42:38;3.30;;;1.80;;
10275;SDS011;5183;51.190;6.820;2024-03-23T12:45:05;3.07;;;1.60;;
10275;SDS011;5183;51.190;6.820;2024-03-23T12:47:32;6.77;;;1.63;;
10275;SDS011;5183;51.190;6.820;2024-03-23T12:49:59;2.50;;;1.20;;
10275;SDS011;5183;51.190;6.820;2024-03-23T12:52:26;4.47;;;1.30;;
10275;SDS011;5183;51.190;6.820;2024-03-23T12:54:53;1.60;;;1.17;;
10275;SDS011;5183;51.190;6.820;2024-03-23T12:57:22;2.27;;;1.17;;
10275;SDS011;5183;51.190;6.820;2024-03-23T12:59:49;2.00;;;1.20;;
10275;SDS011;5183;51.190;6.820;2024-03-23T13:02:17;2.83;;;1.37;;
10275;SDS011;5183;51.190;6.820;2024-03-23T13:04:44;4.20;;;1.60;;
10275;SDS011;5183;51.190;6.820;2024-03-23T13:07:13;3.73;;;1.30;;
10275;SDS011;5183;51.190;6.820;2024-03-23T13:09:39;1.87;;;1.27;;
10275;SDS011;5183;51.190;6.820;2024-03-23T13:12:06;2.33;;;1.30;;
10275;SDS011;5183;51.190;6.820;2024-03-23T13:14:33;2.53;;;1.30;;
10275;SDS011;5183;51.190;6.820;2024-03-23T13:16:59;4.07;;;1.73;;
10275;SDS011;5183;51.190;6.820;2024-03-23T13:19:26;2.60;;;1.50;;
10275;SDS011;5183;51.190;6.820;2024-03-23T13:21:55;2.87;;;1.10;;
10275;SDS011;5183;51.190;6.820;2024-03-23T13:24:23;4.10;;;1.40;;
10275;SDS011;5183;51.190;6.820;2024-03-23T13:26:50;5.10;;;1.53;;
10275;SDS011;5183;51.190;6.820;2024-03-23T13:29:17;4.37;;;1.50;;
10275;SDS011;5183;51.190;6.820;2024-03-23T13:31:44;4.00;;;1.40;;
10275;SDS011;5183;51.190;6.820;2024-03-23T13:34:10;1.67;;;1.13;;
10275;SDS011;5183;51.190;6.820;2024-03-23T13:36:38;3.20;;;1.57;;
10275;SDS011;5183;51.190;6.820;2024-03-23T13:39:04;4.97;;;1.80;;
10275;SDS011;5183;51.190;6.820;2024-03-23T13:41:37;3.00;;;1.60;;
10275;SDS011;5183;51.190;6.820;2024-03-23T13:44:04;4.37;;;1.70;;
10275;SDS011;5183;51.190;6.820;2024-03-23T13:46:31;3.90;;;1.50;;
10275;SDS011;5183;51.190;6.820;2024-03-23T13:48:57;3.30;;;1.80;;
10275;SDS011;5183;51.190;6.820;2024-03-23T13:51:24;7.90;;;1.83;;
10275;SDS011;5183;51.190;6.820;2024-03-23T13:53:52;3.33;;;1.80;;
10275;SDS011;5183;51.190;6.820;2024-03-23T13:56:19;3.90;;;1.70;;
10275;SDS011;5183;51.190;6.820;2024-03-23T13:58:46;6.33;;;2.43;;
10275;SDS011;5183;51.190;6.820;2024-03-23T14:01:13;6.57;;;3.07;;
10275;SDS011;5183;51.190;6.820;2024-03-23T14:03:39;5.70;;;2.07;;
10275;SDS011;5183;51.190;6.820;2024-03-23T14:06:07;6.20;;;2.10;;
10275;SDS011;5183;51.190;6.820;2024-03-23T14:08:33;3.30;;;2.10;;
10275;SDS011;5183;51.190;6.820;2024-03-23T14:11:01;3.43;;;2.00;;
10275;SDS011;5183;51.190;6.820;2024-03-23T14:13:28;4.80;;;2.20;;
10275;SDS011;5183;51.190;6.820;2024-03-23T14:15:57;3.00;;;1.87;;
10275;SDS011;5183;51.190;6.820;2024-03-23T14:18:23;5.47;;;2.00;;
10275;SDS011;5183;51.190;6.820;2024-03-23T14:20:51;3.87;;;2.20;;
10275;SDS011;5183;51.190;6.820;2024-03-23T14:23:18;5.07;;;2.40;;
10275;SDS011;5183;51.190;6.820;2024-03-23T14:25:45;3.50;;;2.00;;
10275;SDS011;5183;51.190;6.820;2024-03-23T14:28:11;3.80;;;1.80;;
10275;SDS011;5183;51.190;6.820;2024-03-23T14:30:40;4.67;;;2.20;;
10275;SDS011;5183;51.190;6.820;2024-03-23T14:33:08;5.07;;;2.97;;
10275;SDS011;5183;51.190;6.820;2024-03-23T14:35:35;3.10;;;1.93;;
10275;SDS011;5183;51.190;6.820;2024-03-23T14:38:01;3.00;;;1.70;;
10275;SDS011;5183;51.190;6.820;2024-03-23T14:40:28;2.97;;;1.70;;
10275;SDS011;5183;51.190;6.820;2024-03-23T14:42:54;2.90;;;1.80;;
10275;SDS011;5183;51.190;6.820;2024-03-23T14:45:21;2.83;;;1.70;;
10275;SDS011;5183;51.190;6.820;2024-03-23T14:47:49;4.13;;;1.90;;
10275;SDS011;5183;51.190;6.820;2024-03-23T14:50:18;2.60;;;1.77;;
10275;SDS011;5183;51.190;6.820;2024-03-23T14:52:44;2.77;;;1.67;;
10275;SDS011;5183;51.190;6.820;2024-03-23T14:55:11;4.27;;;2.00;;
10275;SDS011;5183;51.190;6.820;2024-03-23T14:57:37;2.97;;;1.60;;
10275;SDS011;5183;51.190;6.820;2024-03-23T15:00:06;3.47;;;2.00;;
10275;SDS011;5183;51.190;6.820;2024-03-23T15:02:32;3.60;;;1.93;;
10275;SDS011;5183;51.190;6.820;2024-03-23T15:04:59;4.00;;;2.27;;
10275;SDS011;5183;51.190;6.820;2024-03-23T15:07:27;3.03;;;1.60;;
10275;SDS011;5183;51.190;6.820;2024-03-23T15:09:54;2.70;;;1.80;;
10275;SDS011;5183;51.190;6.820;2024-03-23T15:12:20;2.67;;;1.73;;
10275;SDS011;5183;51.190;6.820;2024-03-23T15:14:47;4.00;;;1.80;;
10275;SDS011;5183;51.190;6.820;2024-03-23T15:17:13;4.30;;;1.73;;
10275;SDS011;5183;51.190;6.820;2024-03-23T15:19:40;2.23;;;1.50;;
10275;SDS011;5183;51.190;6.820;2024-03-23T15:22:07;3.43;;;1.77;;
10275;SDS011;5183;51.190;6.820;2024-03-23T15:24:36;1.50;;;1.40;;
10275;SDS011;5183;51.190;6.820;2024-03-23T15:27:02;3.00;;;1.70;;
10275;SDS011;5183;51.190;6.820;2024-03-23T15:29:29;2.80;;;1.70;;
10275;SDS011;5183;51.190;6.820;2024-03-23T15:31:55;3.70;;;1.97;;
10275;SDS011;5183;51.190;6.820;2024-03-23T15:34:22;3.70;;;1.90;;
10275;SDS011;5183;51.190;6.820;2024-03-23T15:36:48;2.90;;;2.03;;
10275;SDS011;5183;51.190;6.820;2024-03-23T15:39:15;2.93;;;1.80;;
10275;SDS011;5183;51.190;6.820;2024-03-23T15:41:44;2.47;;;2.00;;
10275;SDS011;5183;51.190;6.820;2024-03-23T15:44:11;2.47;;;1.80;;
10275;SDS011;5183;51.190;6.820;2024-03-23T15:46:37;4.80;;;1.83;;